<?xml version="1.0" encoding="UTF-8" standalone="no" ?>
<gpx xmlns="http://www.topografix.com/GPX/1/1" xmlns:xsi="http://www.w3.org/2001/XMLSchema-instance" xsi:schemaLocation="http://www.topografix.com/GPX/1/1 http://www.topografix.com/GPX/1/1/gpx.xsd" version="1.1" creator="VisuGPX - https://www.visugpx.com">
  <metadata>
    <name>Parcours pour le 25-05-16</name>
    <desc><![CDATA[Ce circuit a été parcouru en VTT, les résultats à pieds seront différents.]]></desc>
  </metadata>
  <trk>
    <name><![CDATA[Parcours du 2016-05-04 18:52]]></name>
    <desc><![CDATA[]]></desc>
    <trkseg>
      <trkpt lat="46.53532" lon="3.74865">
        <ele>266</ele>
        <time>2016-05-04T16:52:51.218Z</time>
      </trkpt>
      <trkpt lat="46.53516" lon="3.74868">
        <ele>267</ele>
        <time>2016-05-04T16:52:56.198Z</time>
      </trkpt>
      <trkpt lat="46.53514" lon="3.74871">
        <ele>270</ele>
        <time>2016-05-04T16:53:01.255Z</time>
      </trkpt>
      <trkpt lat="46.53516" lon="3.74876">
        <ele>274</ele>
        <time>2016-05-04T16:53:06.684Z</time>
      </trkpt>
      <trkpt lat="46.53511" lon="3.74882">
        <ele>274</ele>
        <time>2016-05-04T16:53:09.687Z</time>
      </trkpt>
      <trkpt lat="46.53512" lon="3.74893">
        <ele>276</ele>
        <time>2016-05-04T16:53:12.743Z</time>
      </trkpt>
      <trkpt lat="46.53513" lon="3.74937">
        <ele>277</ele>
        <time>2016-05-04T16:53:18.681Z</time>
      </trkpt>
      <trkpt lat="46.53514" lon="3.74949">
        <ele>276</ele>
        <time>2016-05-04T16:53:21.840Z</time>
      </trkpt>
      <trkpt lat="46.53506" lon="3.74971">
        <ele>278</ele>
        <time>2016-05-04T16:53:27.732Z</time>
      </trkpt>
      <trkpt lat="46.5351" lon="3.75026">
        <ele>276</ele>
        <time>2016-05-04T16:53:33.696Z</time>
      </trkpt>
      <trkpt lat="46.53509" lon="3.75046">
        <ele>275</ele>
        <time>2016-05-04T16:53:36.684Z</time>
      </trkpt>
      <trkpt lat="46.53505" lon="3.75064">
        <ele>276</ele>
        <time>2016-05-04T16:53:39.793Z</time>
      </trkpt>
      <trkpt lat="46.53503" lon="3.75102">
        <ele>280</ele>
        <time>2016-05-04T16:53:45.745Z</time>
      </trkpt>
      <trkpt lat="46.53511" lon="3.75132">
        <ele>270</ele>
        <time>2016-05-04T16:53:49.606Z</time>
      </trkpt>
      <trkpt lat="46.53516" lon="3.75162">
        <ele>276</ele>
        <time>2016-05-04T16:53:55.604Z</time>
      </trkpt>
      <trkpt lat="46.53513" lon="3.75179">
        <ele>271</ele>
        <time>2016-05-04T16:53:58.606Z</time>
      </trkpt>
      <trkpt lat="46.53512" lon="3.75188">
        <ele>268</ele>
        <time>2016-05-04T16:54:01.611Z</time>
      </trkpt>
      <trkpt lat="46.53516" lon="3.75217">
        <ele>274</ele>
        <time>2016-05-04T16:54:07.612Z</time>
      </trkpt>
      <trkpt lat="46.53521" lon="3.75234">
        <ele>271</ele>
        <time>2016-05-04T16:54:10.612Z</time>
      </trkpt>
      <trkpt lat="46.53523" lon="3.75271">
        <ele>268</ele>
        <time>2016-05-04T16:54:16.606Z</time>
      </trkpt>
      <trkpt lat="46.53525" lon="3.75289">
        <ele>266</ele>
        <time>2016-05-04T16:54:19.606Z</time>
      </trkpt>
      <trkpt lat="46.53527" lon="3.75328">
        <ele>265</ele>
        <time>2016-05-04T16:54:25.613Z</time>
      </trkpt>
      <trkpt lat="46.53529" lon="3.75345">
        <ele>264</ele>
        <time>2016-05-04T16:54:28.613Z</time>
      </trkpt>
      <trkpt lat="46.53531" lon="3.75362">
        <ele>268</ele>
        <time>2016-05-04T16:54:31.614Z</time>
      </trkpt>
      <trkpt lat="46.53534" lon="3.7538">
        <ele>268</ele>
        <time>2016-05-04T16:54:34.619Z</time>
      </trkpt>
      <trkpt lat="46.53554" lon="3.75399">
        <ele>266</ele>
        <time>2016-05-04T16:54:40.611Z</time>
      </trkpt>
      <trkpt lat="46.53572" lon="3.75401">
        <ele>263</ele>
        <time>2016-05-04T16:54:46.602Z</time>
      </trkpt>
      <trkpt lat="46.53577" lon="3.75412">
        <ele>264</ele>
        <time>2016-05-04T16:54:49.605Z</time>
      </trkpt>
      <trkpt lat="46.53582" lon="3.75429">
        <ele>266</ele>
        <time>2016-05-04T16:54:52.611Z</time>
      </trkpt>
      <trkpt lat="46.53592" lon="3.75459">
        <ele>266</ele>
        <time>2016-05-04T16:54:58.607Z</time>
      </trkpt>
      <trkpt lat="46.53598" lon="3.75487">
        <ele>267</ele>
        <time>2016-05-04T16:55:04.605Z</time>
      </trkpt>
      <trkpt lat="46.53602" lon="3.75502">
        <ele>266</ele>
        <time>2016-05-04T16:55:07.607Z</time>
      </trkpt>
      <trkpt lat="46.53605" lon="3.75517">
        <ele>265</ele>
        <time>2016-05-04T16:55:10.609Z</time>
      </trkpt>
      <trkpt lat="46.5361" lon="3.75532">
        <ele>269</ele>
        <time>2016-05-04T16:55:13.611Z</time>
      </trkpt>
      <trkpt lat="46.53614" lon="3.75547">
        <ele>270</ele>
        <time>2016-05-04T16:55:16.614Z</time>
      </trkpt>
      <trkpt lat="46.53621" lon="3.7557">
        <ele>262</ele>
        <time>2016-05-04T16:55:22.609Z</time>
      </trkpt>
      <trkpt lat="46.53627" lon="3.75594">
        <ele>265</ele>
        <time>2016-05-04T16:55:28.614Z</time>
      </trkpt>
      <trkpt lat="46.53632" lon="3.75614">
        <ele>267</ele>
        <time>2016-05-04T16:55:34.602Z</time>
      </trkpt>
      <trkpt lat="46.53635" lon="3.75621">
        <ele>265</ele>
        <time>2016-05-04T16:55:37.610Z</time>
      </trkpt>
      <trkpt lat="46.53637" lon="3.75631">
        <ele>265</ele>
        <time>2016-05-04T16:55:40.611Z</time>
      </trkpt>
      <trkpt lat="46.53648" lon="3.75662">
        <ele>267</ele>
        <time>2016-05-04T16:55:46.606Z</time>
      </trkpt>
      <trkpt lat="46.53654" lon="3.75678">
        <ele>267</ele>
        <time>2016-05-04T16:55:49.613Z</time>
      </trkpt>
      <trkpt lat="46.53657" lon="3.75706">
        <ele>264</ele>
        <time>2016-05-04T16:55:55.608Z</time>
      </trkpt>
      <trkpt lat="46.5366" lon="3.75718">
        <ele>264</ele>
        <time>2016-05-04T16:55:58.608Z</time>
      </trkpt>
      <trkpt lat="46.53665" lon="3.7573">
        <ele>263</ele>
        <time>2016-05-04T16:56:01.610Z</time>
      </trkpt>
      <trkpt lat="46.53674" lon="3.75762">
        <ele>259</ele>
        <time>2016-05-04T16:56:07.605Z</time>
      </trkpt>
      <trkpt lat="46.53679" lon="3.75775">
        <ele>261</ele>
        <time>2016-05-04T16:56:10.607Z</time>
      </trkpt>
      <trkpt lat="46.5369" lon="3.758">
        <ele>268</ele>
        <time>2016-05-04T16:56:16.608Z</time>
      </trkpt>
      <trkpt lat="46.53696" lon="3.75827">
        <ele>273</ele>
        <time>2016-05-04T16:56:22.612Z</time>
      </trkpt>
      <trkpt lat="46.53698" lon="3.75845">
        <ele>274</ele>
        <time>2016-05-04T16:56:25.613Z</time>
      </trkpt>
      <trkpt lat="46.53703" lon="3.75875">
        <ele>272</ele>
        <time>2016-05-04T16:56:31.610Z</time>
      </trkpt>
      <trkpt lat="46.53706" lon="3.75887">
        <ele>269</ele>
        <time>2016-05-04T16:56:34.614Z</time>
      </trkpt>
      <trkpt lat="46.53714" lon="3.75917">
        <ele>260</ele>
        <time>2016-05-04T16:56:41.579Z</time>
      </trkpt>
      <trkpt lat="46.53723" lon="3.75954">
        <ele>260</ele>
        <time>2016-05-04T16:56:47.521Z</time>
      </trkpt>
      <trkpt lat="46.53725" lon="3.75971">
        <ele>260</ele>
        <time>2016-05-04T16:56:50.522Z</time>
      </trkpt>
      <trkpt lat="46.53729" lon="3.75997">
        <ele>260</ele>
        <time>2016-05-04T16:56:54.756Z</time>
      </trkpt>
      <trkpt lat="46.53733" lon="3.76019">
        <ele>260</ele>
        <time>2016-05-04T16:57:00.745Z</time>
      </trkpt>
      <trkpt lat="46.53733" lon="3.76038">
        <ele>262</ele>
        <time>2016-05-04T16:57:04.600Z</time>
      </trkpt>
      <trkpt lat="46.53731" lon="3.7605">
        <ele>263</ele>
        <time>2016-05-04T16:57:07.599Z</time>
      </trkpt>
      <trkpt lat="46.53731" lon="3.76068">
        <ele>265</ele>
        <time>2016-05-04T16:57:13.598Z</time>
      </trkpt>
      <trkpt lat="46.53732" lon="3.76078">
        <ele>267</ele>
        <time>2016-05-04T16:57:16.603Z</time>
      </trkpt>
      <trkpt lat="46.53734" lon="3.76086">
        <ele>269</ele>
        <time>2016-05-04T16:57:19.604Z</time>
      </trkpt>
      <trkpt lat="46.53734" lon="3.76095">
        <ele>267</ele>
        <time>2016-05-04T16:57:23.517Z</time>
      </trkpt>
      <trkpt lat="46.53739" lon="3.76122">
        <ele>267</ele>
        <time>2016-05-04T16:57:29.519Z</time>
      </trkpt>
      <trkpt lat="46.53738" lon="3.76141">
        <ele>266</ele>
        <time>2016-05-04T16:57:34.654Z</time>
      </trkpt>
      <trkpt lat="46.53738" lon="3.7615">
        <ele>266</ele>
        <time>2016-05-04T16:57:37.599Z</time>
      </trkpt>
      <trkpt lat="46.53738" lon="3.76159">
        <ele>266</ele>
        <time>2016-05-04T16:57:40.600Z</time>
      </trkpt>
      <trkpt lat="46.53736" lon="3.76168">
        <ele>265</ele>
        <time>2016-05-04T16:57:43.600Z</time>
      </trkpt>
      <trkpt lat="46.53735" lon="3.76178">
        <ele>267</ele>
        <time>2016-05-04T16:57:46.617Z</time>
      </trkpt>
      <trkpt lat="46.53735" lon="3.7619">
        <ele>266</ele>
        <time>2016-05-04T16:57:49.620Z</time>
      </trkpt>
      <trkpt lat="46.53736" lon="3.7622">
        <ele>267</ele>
        <time>2016-05-04T16:57:55.605Z</time>
      </trkpt>
      <trkpt lat="46.53736" lon="3.76249">
        <ele>265</ele>
        <time>2016-05-04T16:58:01.615Z</time>
      </trkpt>
      <trkpt lat="46.53738" lon="3.76276">
        <ele>272</ele>
        <time>2016-05-04T16:58:07.639Z</time>
      </trkpt>
      <trkpt lat="46.53736" lon="3.76302">
        <ele>270</ele>
        <time>2016-05-04T16:58:14.511Z</time>
      </trkpt>
      <trkpt lat="46.53733" lon="3.7633">
        <ele>274</ele>
        <time>2016-05-04T16:58:20.506Z</time>
      </trkpt>
      <trkpt lat="46.53733" lon="3.76359">
        <ele>276</ele>
        <time>2016-05-04T16:58:26.508Z</time>
      </trkpt>
      <trkpt lat="46.5373" lon="3.76395">
        <ele>271</ele>
        <time>2016-05-04T16:58:32.518Z</time>
      </trkpt>
      <trkpt lat="46.53735" lon="3.7642">
        <ele>276</ele>
        <time>2016-05-04T16:58:38.515Z</time>
      </trkpt>
      <trkpt lat="46.53738" lon="3.7644">
        <ele>276</ele>
        <time>2016-05-04T16:58:44.515Z</time>
      </trkpt>
      <trkpt lat="46.53735" lon="3.7646">
        <ele>271</ele>
        <time>2016-05-04T16:58:47.517Z</time>
      </trkpt>
      <trkpt lat="46.5373" lon="3.76495">
        <ele>273</ele>
        <time>2016-05-04T16:58:53.516Z</time>
      </trkpt>
      <trkpt lat="46.53723" lon="3.76501">
        <ele>273</ele>
        <time>2016-05-04T16:58:56.527Z</time>
      </trkpt>
      <trkpt lat="46.53709" lon="3.76485">
        <ele>272</ele>
        <time>2016-05-04T16:59:02.522Z</time>
      </trkpt>
      <trkpt lat="46.53692" lon="3.76459">
        <ele>270</ele>
        <time>2016-05-04T16:59:08.518Z</time>
      </trkpt>
      <trkpt lat="46.53678" lon="3.76418">
        <ele>267</ele>
        <time>2016-05-04T16:59:14.515Z</time>
      </trkpt>
      <trkpt lat="46.53676" lon="3.76401">
        <ele>268</ele>
        <time>2016-05-04T16:59:17.522Z</time>
      </trkpt>
      <trkpt lat="46.53672" lon="3.76382">
        <ele>270</ele>
        <time>2016-05-04T16:59:20.522Z</time>
      </trkpt>
      <trkpt lat="46.53664" lon="3.76345">
        <ele>269</ele>
        <time>2016-05-04T16:59:26.522Z</time>
      </trkpt>
      <trkpt lat="46.53661" lon="3.76307">
        <ele>270</ele>
        <time>2016-05-04T16:59:32.522Z</time>
      </trkpt>
      <trkpt lat="46.53661" lon="3.76269">
        <ele>271</ele>
        <time>2016-05-04T16:59:38.518Z</time>
      </trkpt>
      <trkpt lat="46.53662" lon="3.76252">
        <ele>270</ele>
        <time>2016-05-04T16:59:41.520Z</time>
      </trkpt>
      <trkpt lat="46.53663" lon="3.76234">
        <ele>272</ele>
        <time>2016-05-04T16:59:44.544Z</time>
      </trkpt>
      <trkpt lat="46.53659" lon="3.76198">
        <ele>270</ele>
        <time>2016-05-04T16:59:50.520Z</time>
      </trkpt>
      <trkpt lat="46.53656" lon="3.76169">
        <ele>268</ele>
        <time>2016-05-04T16:59:53.520Z</time>
      </trkpt>
      <trkpt lat="46.53653" lon="3.76145">
        <ele>266</ele>
        <time>2016-05-04T16:59:56.526Z</time>
      </trkpt>
      <trkpt lat="46.53642" lon="3.76115">
        <ele>265</ele>
        <time>2016-05-04T17:00:02.469Z</time>
      </trkpt>
      <trkpt lat="46.53639" lon="3.76107">
        <ele>270</ele>
        <time>2016-05-04T17:00:05.486Z</time>
      </trkpt>
      <trkpt lat="46.53633" lon="3.76069">
        <ele>275</ele>
        <time>2016-05-04T17:00:11.479Z</time>
      </trkpt>
      <trkpt lat="46.53636" lon="3.76044">
        <ele>266</ele>
        <time>2016-05-04T17:00:14.480Z</time>
      </trkpt>
      <trkpt lat="46.53634" lon="3.76019">
        <ele>268</ele>
        <time>2016-05-04T17:00:17.483Z</time>
      </trkpt>
      <trkpt lat="46.53624" lon="3.7597">
        <ele>269</ele>
        <time>2016-05-04T17:00:23.474Z</time>
      </trkpt>
      <trkpt lat="46.53612" lon="3.7592">
        <ele>269</ele>
        <time>2016-05-04T17:00:29.502Z</time>
      </trkpt>
      <trkpt lat="46.536" lon="3.75874">
        <ele>274</ele>
        <time>2016-05-04T17:00:35.495Z</time>
      </trkpt>
      <trkpt lat="46.53591" lon="3.7585">
        <ele>276</ele>
        <time>2016-05-04T17:00:38.611Z</time>
      </trkpt>
      <trkpt lat="46.53574" lon="3.75803">
        <ele>276</ele>
        <time>2016-05-04T17:00:43.761Z</time>
      </trkpt>
      <trkpt lat="46.53549" lon="3.75746">
        <ele>278</ele>
        <time>2016-05-04T17:00:50.501Z</time>
      </trkpt>
      <trkpt lat="46.53535" lon="3.75727">
        <ele>279</ele>
        <time>2016-05-04T17:00:53.501Z</time>
      </trkpt>
      <trkpt lat="46.53521" lon="3.75704">
        <ele>279</ele>
        <time>2016-05-04T17:00:56.504Z</time>
      </trkpt>
      <trkpt lat="46.53494" lon="3.75651">
        <ele>275</ele>
        <time>2016-05-04T17:01:02.494Z</time>
      </trkpt>
      <trkpt lat="46.53478" lon="3.75631">
        <ele>273</ele>
        <time>2016-05-04T17:01:05.507Z</time>
      </trkpt>
      <trkpt lat="46.5345" lon="3.75586">
        <ele>273</ele>
        <time>2016-05-04T17:01:11.513Z</time>
      </trkpt>
      <trkpt lat="46.53421" lon="3.75546">
        <ele>270</ele>
        <time>2016-05-04T17:01:17.481Z</time>
      </trkpt>
      <trkpt lat="46.53405" lon="3.75528">
        <ele>269</ele>
        <time>2016-05-04T17:01:20.503Z</time>
      </trkpt>
      <trkpt lat="46.53391" lon="3.75507">
        <ele>270</ele>
        <time>2016-05-04T17:01:23.504Z</time>
      </trkpt>
      <trkpt lat="46.53359" lon="3.75466">
        <ele>273</ele>
        <time>2016-05-04T17:01:29.492Z</time>
      </trkpt>
      <trkpt lat="46.53344" lon="3.75443">
        <ele>273</ele>
        <time>2016-05-04T17:01:32.502Z</time>
      </trkpt>
      <trkpt lat="46.53323" lon="3.75376">
        <ele>264</ele>
        <time>2016-05-04T17:01:38.492Z</time>
      </trkpt>
      <trkpt lat="46.53302" lon="3.75336">
        <ele>267</ele>
        <time>2016-05-04T17:01:44.523Z</time>
      </trkpt>
      <trkpt lat="46.53293" lon="3.75311">
        <ele>267</ele>
        <time>2016-05-04T17:01:47.504Z</time>
      </trkpt>
      <trkpt lat="46.53287" lon="3.75287">
        <ele>266</ele>
        <time>2016-05-04T17:01:50.516Z</time>
      </trkpt>
      <trkpt lat="46.53281" lon="3.7526">
        <ele>266</ele>
        <time>2016-05-04T17:01:53.516Z</time>
      </trkpt>
      <trkpt lat="46.53278" lon="3.75198">
        <ele>269</ele>
        <time>2016-05-04T17:01:59.511Z</time>
      </trkpt>
      <trkpt lat="46.53278" lon="3.75146">
        <ele>271</ele>
        <time>2016-05-04T17:02:05.516Z</time>
      </trkpt>
      <trkpt lat="46.53276" lon="3.75116">
        <ele>276</ele>
        <time>2016-05-04T17:02:08.516Z</time>
      </trkpt>
      <trkpt lat="46.53273" lon="3.75062">
        <ele>276</ele>
        <time>2016-05-04T17:02:14.515Z</time>
      </trkpt>
      <trkpt lat="46.53268" lon="3.75028">
        <ele>268</ele>
        <time>2016-05-04T17:02:17.529Z</time>
      </trkpt>
      <trkpt lat="46.53234" lon="3.74993">
        <ele>264</ele>
        <time>2016-05-04T17:02:22.608Z</time>
      </trkpt>
      <trkpt lat="46.53207" lon="3.74957">
        <ele>269</ele>
        <time>2016-05-04T17:02:29.518Z</time>
      </trkpt>
      <trkpt lat="46.53199" lon="3.74907">
        <ele>274</ele>
        <time>2016-05-04T17:02:35.513Z</time>
      </trkpt>
      <trkpt lat="46.53197" lon="3.74886">
        <ele>277</ele>
        <time>2016-05-04T17:02:38.515Z</time>
      </trkpt>
      <trkpt lat="46.532" lon="3.74824">
        <ele>277</ele>
        <time>2016-05-04T17:02:44.514Z</time>
      </trkpt>
      <trkpt lat="46.53199" lon="3.74768">
        <ele>280</ele>
        <time>2016-05-04T17:02:50.627Z</time>
      </trkpt>
      <trkpt lat="46.53201" lon="3.74715">
        <ele>276</ele>
        <time>2016-05-04T17:02:56.479Z</time>
      </trkpt>
      <trkpt lat="46.53202" lon="3.74687">
        <ele>279</ele>
        <time>2016-05-04T17:02:59.512Z</time>
      </trkpt>
      <trkpt lat="46.53204" lon="3.7466">
        <ele>280</ele>
        <time>2016-05-04T17:03:02.540Z</time>
      </trkpt>
      <trkpt lat="46.53208" lon="3.74602">
        <ele>280</ele>
        <time>2016-05-04T17:03:08.523Z</time>
      </trkpt>
      <trkpt lat="46.53217" lon="3.74576">
        <ele>285</ele>
        <time>2016-05-04T17:03:11.547Z</time>
      </trkpt>
      <trkpt lat="46.53214" lon="3.74542">
        <ele>283</ele>
        <time>2016-05-04T17:03:17.546Z</time>
      </trkpt>
      <trkpt lat="46.53215" lon="3.74527">
        <ele>283</ele>
        <time>2016-05-04T17:03:23.540Z</time>
      </trkpt>
      <trkpt lat="46.53225" lon="3.74525">
        <ele>283</ele>
        <time>2016-05-04T17:03:26.593Z</time>
      </trkpt>
      <trkpt lat="46.53265" lon="3.74534">
        <ele>281</ele>
        <time>2016-05-04T17:03:32.540Z</time>
      </trkpt>
      <trkpt lat="46.53305" lon="3.7456">
        <ele>280</ele>
        <time>2016-05-04T17:03:38.540Z</time>
      </trkpt>
      <trkpt lat="46.5334" lon="3.74584">
        <ele>281</ele>
        <time>2016-05-04T17:03:44.524Z</time>
      </trkpt>
      <trkpt lat="46.53353" lon="3.74593">
        <ele>281</ele>
        <time>2016-05-04T17:03:47.570Z</time>
      </trkpt>
      <trkpt lat="46.53366" lon="3.74602">
        <ele>279</ele>
        <time>2016-05-04T17:03:53.542Z</time>
      </trkpt>
      <trkpt lat="46.53366" lon="3.74599">
        <ele>281</ele>
        <time>2016-05-04T17:03:56.542Z</time>
      </trkpt>
      <trkpt lat="46.53368" lon="3.74599">
        <ele>281</ele>
        <time>2016-05-04T17:04:02.534Z</time>
      </trkpt>
      <trkpt lat="46.53405" lon="3.74616">
        <ele>287</ele>
        <time>2016-05-04T17:04:08.532Z</time>
      </trkpt>
      <trkpt lat="46.53421" lon="3.74625">
        <ele>284</ele>
        <time>2016-05-04T17:04:11.536Z</time>
      </trkpt>
      <trkpt lat="46.53456" lon="3.74641">
        <ele>280</ele>
        <time>2016-05-04T17:04:17.548Z</time>
      </trkpt>
      <trkpt lat="46.53475" lon="3.74657">
        <ele>282</ele>
        <time>2016-05-04T17:04:20.562Z</time>
      </trkpt>
      <trkpt lat="46.53506" lon="3.74677">
        <ele>279</ele>
        <time>2016-05-04T17:04:26.540Z</time>
      </trkpt>
      <trkpt lat="46.53512" lon="3.7465">
        <ele>281</ele>
        <time>2016-05-04T17:04:31.656Z</time>
      </trkpt>
      <trkpt lat="46.53514" lon="3.74598">
        <ele>279</ele>
        <time>2016-05-04T17:04:37.633Z</time>
      </trkpt>
      <trkpt lat="46.53509" lon="3.74538">
        <ele>279</ele>
        <time>2016-05-04T17:04:42.935Z</time>
      </trkpt>
      <trkpt lat="46.53511" lon="3.74481">
        <ele>280</ele>
        <time>2016-05-04T17:04:48.710Z</time>
      </trkpt>
      <trkpt lat="46.53513" lon="3.74456">
        <ele>277</ele>
        <time>2016-05-04T17:04:51.763Z</time>
      </trkpt>
      <trkpt lat="46.53518" lon="3.74417">
        <ele>275</ele>
        <time>2016-05-04T17:04:57.745Z</time>
      </trkpt>
      <trkpt lat="46.53492" lon="3.74405">
        <ele>270</ele>
        <time>2016-05-04T17:05:03.758Z</time>
      </trkpt>
      <trkpt lat="46.53461" lon="3.74402">
        <ele>277</ele>
        <time>2016-05-04T17:05:09.753Z</time>
      </trkpt>
      <trkpt lat="46.53453" lon="3.74402">
        <ele>263</ele>
        <time>2016-05-04T17:05:15.690Z</time>
      </trkpt>
      <trkpt lat="46.53474" lon="3.74404">
        <ele>266</ele>
        <time>2016-05-04T17:05:21.739Z</time>
      </trkpt>
      <trkpt lat="46.53513" lon="3.74409">
        <ele>271</ele>
        <time>2016-05-04T17:05:27.716Z</time>
      </trkpt>
      <trkpt lat="46.53523" lon="3.74426">
        <ele>274</ele>
        <time>2016-05-04T17:05:30.750Z</time>
      </trkpt>
      <trkpt lat="46.53523" lon="3.74483">
        <ele>277</ele>
        <time>2016-05-04T17:05:37.595Z</time>
      </trkpt>
      <trkpt lat="46.53521" lon="3.74513">
        <ele>277</ele>
        <time>2016-05-04T17:05:40.638Z</time>
      </trkpt>
      <trkpt lat="46.53519" lon="3.74579">
        <ele>268</ele>
        <time>2016-05-04T17:05:46.607Z</time>
      </trkpt>
      <trkpt lat="46.53518" lon="3.74637">
        <ele>265</ele>
        <time>2016-05-04T17:05:53.503Z</time>
      </trkpt>
      <trkpt lat="46.53524" lon="3.74676">
        <ele>267</ele>
        <time>2016-05-04T17:05:59.479Z</time>
      </trkpt>
      <trkpt lat="46.53534" lon="3.74685">
        <ele>269</ele>
        <time>2016-05-04T17:06:02.481Z</time>
      </trkpt>
      <trkpt lat="46.53544" lon="3.74715">
        <ele>262</ele>
        <time>2016-05-04T17:06:08.480Z</time>
      </trkpt>
      <trkpt lat="46.53542" lon="3.74736">
        <ele>264</ele>
        <time>2016-05-04T17:06:11.481Z</time>
      </trkpt>
      <trkpt lat="46.53537" lon="3.74785">
        <ele>267</ele>
        <time>2016-05-04T17:06:17.488Z</time>
      </trkpt>
      <trkpt lat="46.53536" lon="3.74805">
        <ele>270</ele>
        <time>2016-05-04T17:06:20.546Z</time>
      </trkpt>
      <trkpt lat="46.53532" lon="3.74821">
        <ele>269</ele>
        <time>2016-05-04T17:06:23.532Z</time>
      </trkpt>
      <trkpt lat="46.5353" lon="3.7485">
        <ele>270</ele>
        <time>2016-05-04T17:06:29.532Z</time>
      </trkpt>
      <trkpt lat="46.53526" lon="3.74862">
        <ele>263</ele>
        <time>2016-05-04T17:06:35.528Z</time>
      </trkpt>
      <trkpt lat="46.53523" lon="3.74863">
        <ele>260</ele>
        <time>2016-05-04T17:06:38.546Z</time>
      </trkpt>
      <trkpt lat="46.53523" lon="3.74863">
        <ele>260</ele>
        <time>2016-05-04T17:06:38.633Z</time>
      </trkpt>
      <trkpt lat="46.53523" lon="3.74866">
        <ele>260</ele>
        <time>2016-05-04T17:06:42.159Z</time>
      </trkpt>
      <trkpt lat="46.53523" lon="3.74868">
        <ele>260</ele>
        <time>2016-05-04T17:06:44.610Z</time>
      </trkpt>
    </trkseg>
  </trk>
</gpx>